createdAt,value
2022-07-29T00:00:34.936Z,4.70
2022-07-29T00:02:58.790Z,4.95
2022-07-29T00:05:22.579Z,4.05
2022-07-29T00:07:46.303Z,4.20
2022-07-29T00:10:10.866Z,4.80
2022-07-29T00:12:34.740Z,4.80
2022-07-29T00:14:59.997Z,4.18
2022-07-29T00:17:24.113Z,4.60
2022-07-29T00:19:47.819Z,4.85
2022-07-29T00:22:11.645Z,4.70
2022-07-29T00:24:35.481Z,5.22
2022-07-29T00:26:59.240Z,4.55
2022-07-29T00:29:38.392Z,4.85
2022-07-29T00:32:03.838Z,4.50
2022-07-29T00:34:45.401Z,4.72
2022-07-29T00:37:09.220Z,4.97
2022-07-29T00:39:32.923Z,5.00
2022-07-29T00:41:56.643Z,4.97
2022-07-29T00:44:20.324Z,4.60
2022-07-29T00:46:44.330Z,4.88
2022-07-29T00:49:09.979Z,4.35
2022-07-29T00:51:34.484Z,4.50
2022-07-29T00:53:58.502Z,4.72
2022-07-29T00:56:22.356Z,4.65
2022-07-29T00:58:47.448Z,4.40
2022-07-29T01:01:11.198Z,4.28
2022-07-29T01:03:34.891Z,4.75
2022-07-29T01:06:00.514Z,4.65
2022-07-29T01:08:25.513Z,5.18
2022-07-29T01:10:50.348Z,4.30
2022-07-29T01:13:14.677Z,4.20
2022-07-29T01:15:49.180Z,4.32
2022-07-29T01:18:22.065Z,4.15
2022-07-29T01:21:23.522Z,4.70
2022-07-29T01:24:10.001Z,4.50
2022-07-29T01:26:45.284Z,4.65
2022-07-29T01:29:19.684Z,5.00
2022-07-29T01:31:59.578Z,4.53
2022-07-29T01:34:32.108Z,4.32
2022-07-29T01:37:06.137Z,4.57
2022-07-29T01:39:36.131Z,4.30
2022-07-29T01:42:08.111Z,4.70
2022-07-29T01:44:42.425Z,4.25
2022-07-29T01:47:14.076Z,4.60
2022-07-29T01:49:43.604Z,4.43
2022-07-29T01:52:13.790Z,4.50
2022-07-29T01:54:47.689Z,4.18
2022-07-29T01:57:14.509Z,4.55
2022-07-29T01:59:41.000Z,4.50
2022-07-29T02:02:09.388Z,4.05
2022-07-29T02:04:36.053Z,4.55
2022-07-29T02:07:04.257Z,4.50
2022-07-29T02:09:29.258Z,4.35
2022-07-29T02:11:56.431Z,4.32
2022-07-29T02:14:21.744Z,4.20
2022-07-29T02:16:47.874Z,4.05
2022-07-29T02:19:13.081Z,4.28
2022-07-29T02:21:38.193Z,4.15
2022-07-29T02:24:04.965Z,4.60
2022-07-29T02:26:30.320Z,4.07
2022-07-29T02:28:57.961Z,4.07
2022-07-29T02:31:28.959Z,4.65
2022-07-29T02:33:55.830Z,4.05
2022-07-29T02:36:20.157Z,3.97
2022-07-29T02:38:54.527Z,3.97
2022-07-29T02:41:21.619Z,4.03
2022-07-29T02:43:47.972Z,3.83
2022-07-29T02:46:29.104Z,4.13
2022-07-29T02:49:03.697Z,4.15
2022-07-29T02:51:42.580Z,3.80
2022-07-29T02:54:11.580Z,3.97
2022-07-29T02:56:38.691Z,3.80
2022-07-29T02:59:08.548Z,4.43
2022-07-29T03:01:35.332Z,4.47
2022-07-29T03:04:05.951Z,4.10
2022-07-29T03:06:38.188Z,4.00
2022-07-29T03:09:06.741Z,4.30
2022-07-29T03:11:46.396Z,3.65
2022-07-29T03:14:14.593Z,3.80
2022-07-29T03:16:41.254Z,4.18
2022-07-29T03:19:07.297Z,4.10
2022-07-29T03:21:31.156Z,4.32
2022-07-29T03:23:54.924Z,3.90
2022-07-29T03:26:18.628Z,3.63
2022-07-29T03:28:42.392Z,4.25
2022-07-29T03:31:06.341Z,4.25
2022-07-29T03:33:32.671Z,4.45
2022-07-29T03:35:57.833Z,4.95
2022-07-29T03:38:23.124Z,3.95
2022-07-29T03:40:55.620Z,4.10
2022-07-29T03:43:21.274Z,3.88
2022-07-29T03:45:49.880Z,4.25
2022-07-29T03:48:17.873Z,4.57
2022-07-29T03:50:41.976Z,4.65
2022-07-29T03:53:07.541Z,5.28
2022-07-29T03:55:36.176Z,10.90
2022-07-29T03:58:00.542Z,5.60
2022-07-29T04:00:26.332Z,4.65
2022-07-29T04:02:50.418Z,5.40
2022-07-29T04:05:15.181Z,5.38
2022-07-29T04:07:39.001Z,4.63
2022-07-29T04:10:04.148Z,4.20
2022-07-29T04:12:27.857Z,4.43
2022-07-29T04:14:51.583Z,4.20
2022-07-29T04:17:15.344Z,4.30
2022-07-29T04:19:39.026Z,4.20
2022-07-29T04:22:03.573Z,3.88
2022-07-29T04:24:27.297Z,4.30
2022-07-29T04:26:52.470Z,3.97
2022-07-29T04:29:16.807Z,3.83
2022-07-29T04:31:40.612Z,3.60
2022-07-29T04:34:04.340Z,4.07
2022-07-29T04:36:29.437Z,3.97
2022-07-29T04:38:53.623Z,3.88
2022-07-29T04:41:17.396Z,4.00
2022-07-29T04:43:45.959Z,4.05
2022-07-29T04:46:09.936Z,3.85
2022-07-29T04:48:33.648Z,4.13
2022-07-29T04:50:57.777Z,3.90
2022-07-29T04:53:22.300Z,4.32
2022-07-29T04:55:46.376Z,4.35
2022-07-29T04:58:10.205Z,3.90
2022-07-29T05:00:35.654Z,3.70
2022-07-29T05:02:59.485Z,4.03
2022-07-29T05:05:23.324Z,3.90
2022-07-29T05:07:47.105Z,4.30
2022-07-29T05:10:12.792Z,3.63
2022-07-29T05:12:36.548Z,3.88
2022-07-29T05:15:00.480Z,3.70
2022-07-29T05:17:25.693Z,3.95
2022-07-29T05:19:49.472Z,3.55
2022-07-29T05:22:13.175Z,3.92
2022-07-29T05:24:36.881Z,3.75
2022-07-29T05:27:00.619Z,3.80
2022-07-29T05:29:44.028Z,3.60
2022-07-29T05:32:08.497Z,3.83
2022-07-29T05:34:33.650Z,4.25
2022-07-29T05:36:57.510Z,4.05
2022-07-29T05:39:21.573Z,4.03
2022-07-29T05:41:50.054Z,3.38
2022-07-29T05:44:15.858Z,3.53
2022-07-29T05:46:39.881Z,3.47
2022-07-29T05:49:03.965Z,3.58
2022-07-29T05:51:29.296Z,3.63
2022-07-29T05:53:53.061Z,3.70
2022-07-29T05:56:16.865Z,3.65
2022-07-29T05:58:40.601Z,3.78
2022-07-29T06:01:04.619Z,3.95
2022-07-29T06:03:28.571Z,3.25
2022-07-29T06:05:52.265Z,3.88
2022-07-29T06:08:17.484Z,3.70
2022-07-29T06:10:41.241Z,3.50
2022-07-29T06:13:05.150Z,3.30
2022-07-29T06:15:29.056Z,3.33
2022-07-29T06:18:00.853Z,3.70
2022-07-29T06:20:27.172Z,3.13
2022-07-29T06:22:51.151Z,3.38
2022-07-29T06:25:17.340Z,3.22
2022-07-29T06:27:41.059Z,3.30
2022-07-29T06:30:07.704Z,3.63
2022-07-29T06:32:32.261Z,3.40
2022-07-29T06:35:11.888Z,3.30
2022-07-29T06:37:39.741Z,3.70
2022-07-29T06:40:21.570Z,3.85
2022-07-29T06:42:47.012Z,3.25
2022-07-29T06:45:11.945Z,3.72
2022-07-29T06:47:35.676Z,3.55
2022-07-29T06:49:59.472Z,3.30
2022-07-29T06:52:23.219Z,3.20
2022-07-29T06:54:49.106Z,3.40
2022-07-29T06:57:13.099Z,3.25
2022-07-29T06:59:38.252Z,3.70
2022-07-29T07:02:02.047Z,3.13
2022-07-29T07:04:25.845Z,3.50
2022-07-29T07:06:49.552Z,2.95
2022-07-29T07:09:13.241Z,3.40
2022-07-29T07:11:37.107Z,3.08
2022-07-29T07:14:03.974Z,3.00
2022-07-29T07:16:39.730Z,3.13
2022-07-29T07:19:03.664Z,3.03
2022-07-29T07:21:28.756Z,3.33
2022-07-29T07:23:54.476Z,3.33
2022-07-29T07:26:18.266Z,3.13
2022-07-29T07:28:41.979Z,3.25
2022-07-29T07:31:05.753Z,3.40
2022-07-29T07:33:31.046Z,3.35
2022-07-29T07:35:54.884Z,3.47
2022-07-29T07:38:18.642Z,3.50
2022-07-29T07:40:43.143Z,3.22
2022-07-29T07:43:07.021Z,3.08
2022-07-29T07:45:31.191Z,2.95
2022-07-29T07:47:54.946Z,3.10
2022-07-29T07:50:20.136Z,3.28
2022-07-29T07:52:53.272Z,3.10
2022-07-29T07:55:17.740Z,3.10
2022-07-29T07:57:41.514Z,2.95
2022-07-29T08:00:06.669Z,3.20
2022-07-29T08:02:36.010Z,3.00
2022-07-29T08:05:00.572Z,3.00
2022-07-29T08:07:25.675Z,2.95
2022-07-29T08:09:49.463Z,2.97
2022-07-29T08:12:13.209Z,2.70
2022-07-29T08:14:37.008Z,2.90
2022-07-29T08:17:00.874Z,2.60
2022-07-29T08:19:24.647Z,2.67
2022-07-29T08:21:48.804Z,3.17
2022-07-29T08:24:31.765Z,2.67
2022-07-29T08:26:55.556Z,2.63
2022-07-29T08:29:20.188Z,2.53
2022-07-29T08:31:44.078Z,2.75
2022-07-29T08:34:09.357Z,2.13
2022-07-29T08:36:33.181Z,2.20
2022-07-29T08:38:57.045Z,2.55
2022-07-29T08:41:23.309Z,2.47
2022-07-29T08:43:47.008Z,2.40
2022-07-29T08:46:10.997Z,2.03
2022-07-29T08:48:35.988Z,1.90
2022-07-29T08:51:00.204Z,2.15
2022-07-29T08:53:24.504Z,2.15
2022-07-29T08:55:51.650Z,2.05
2022-07-29T08:58:18.213Z,2.28
2022-07-29T09:00:51.435Z,2.00
2022-07-29T09:03:23.445Z,1.98
2022-07-29T09:05:48.422Z,2.03
2022-07-29T09:08:12.275Z,2.00
2022-07-29T09:10:37.920Z,2.03
2022-07-29T09:13:01.658Z,3.33
2022-07-29T09:15:27.082Z,3.13
2022-07-29T09:17:52.013Z,3.10
2022-07-29T09:20:18.824Z,2.15
2022-07-29T09:22:42.912Z,1.90
2022-07-29T09:25:08.196Z,1.95
2022-07-29T09:27:31.952Z,2.00
2022-07-29T09:30:00.424Z,2.00
2022-07-29T09:32:25.836Z,2.10
2022-07-29T09:34:49.639Z,1.90
2022-07-29T09:37:13.443Z,2.10
2022-07-29T09:39:46.516Z,2.08
2022-07-29T09:42:10.380Z,1.67
2022-07-29T09:44:49.588Z,1.77
2022-07-29T09:47:13.495Z,1.70
2022-07-29T09:49:53.848Z,1.70
2022-07-29T09:52:17.813Z,1.92
2022-07-29T09:54:41.520Z,1.88
2022-07-29T09:57:07.624Z,1.98
2022-07-29T09:59:31.373Z,1.67
2022-07-29T10:01:55.737Z,1.80
2022-07-29T10:04:20.419Z,1.70
2022-07-29T10:07:04.868Z,1.88
2022-07-29T10:09:29.794Z,1.60
2022-07-29T10:12:11.945Z,1.52
2022-07-29T10:14:36.276Z,1.70
2022-07-29T10:17:02.309Z,1.70
2022-07-29T10:19:27.047Z,1.88
2022-07-29T10:21:54.973Z,1.75
2022-07-29T10:24:23.408Z,1.70
2022-07-29T10:26:48.368Z,1.80
2022-07-29T10:29:12.163Z,1.65
2022-07-29T10:31:51.148Z,1.60
2022-07-29T10:34:23.455Z,1.80
2022-07-29T10:36:59.266Z,1.58
2022-07-29T10:39:44.515Z,1.58
2022-07-29T10:42:20.352Z,1.77
2022-07-29T10:44:58.036Z,1.83
2022-07-29T10:47:25.295Z,1.65
2022-07-29T10:50:01.368Z,1.60
2022-07-29T10:52:30.326Z,1.60
2022-07-29T10:54:56.478Z,1.95
2022-07-29T10:57:53.972Z,1.73
2022-07-29T11:00:30.559Z,1.50
2022-07-29T11:02:56.557Z,1.75
2022-07-29T11:05:22.499Z,1.48
2022-07-29T11:08:27.846Z,1.40
2022-07-29T11:11:38.040Z,1.40
2022-07-29T11:14:02.224Z,1.70
2022-07-29T11:16:26.726Z,1.90
2022-07-29T11:19:26.682Z,1.77
2022-07-29T11:21:58.395Z,1.70
2022-07-29T11:24:28.949Z,1.67
2022-07-29T11:27:18.344Z,1.55
2022-07-29T11:29:54.042Z,1.77
2022-07-29T11:32:22.534Z,1.60
2022-07-29T11:34:46.988Z,1.88
2022-07-29T11:37:27.707Z,1.55
2022-07-29T11:40:14.591Z,2.10
2022-07-29T11:42:53.856Z,1.90
2022-07-29T11:45:42.466Z,1.50
2022-07-29T11:48:30.009Z,1.77
2022-07-29T11:50:54.234Z,1.98
2022-07-29T11:53:18.033Z,2.00
2022-07-29T11:55:51.356Z,1.60
2022-07-29T11:58:17.305Z,1.88
2022-07-29T12:00:43.648Z,1.88
2022-07-29T12:03:09.635Z,1.90
2022-07-29T12:05:51.678Z,1.98
2022-07-29T12:08:20.191Z,2.40
2022-07-29T12:10:45.342Z,2.20
2022-07-29T12:13:09.959Z,1.90
2022-07-29T12:15:45.731Z,2.13
2022-07-29T12:18:15.660Z,2.05
2022-07-29T12:20:42.452Z,2.50
2022-07-29T12:23:10.100Z,2.20
2022-07-29T12:25:38.169Z,1.95
2022-07-29T12:28:03.077Z,2.20
2022-07-29T12:30:41.583Z,2.17
2022-07-29T12:33:14.552Z,2.30
2022-07-29T12:35:38.425Z,2.22
2022-07-29T12:38:02.165Z,2.30
2022-07-29T12:40:26.912Z,2.33
2022-07-29T12:43:12.349Z,2.20
2022-07-29T12:45:36.396Z,2.22
2022-07-29T12:48:01.576Z,2.65
2022-07-29T12:50:26.652Z,2.30
2022-07-29T12:52:50.697Z,2.13
2022-07-29T12:55:14.588Z,2.40
2022-07-29T12:57:49.032Z,2.70
2022-07-29T13:00:15.239Z,2.78
2022-07-29T13:02:39.871Z,2.63
2022-07-29T13:05:07.288Z,2.70
2022-07-29T13:07:54.656Z,2.25
2022-07-29T13:10:20.435Z,2.92
2022-07-29T13:13:10.572Z,2.70
2022-07-29T13:15:35.218Z,2.40
2022-07-29T13:17:59.016Z,2.75
2022-07-29T13:20:28.483Z,2.58
2022-07-29T13:22:52.333Z,2.10
2022-07-29T13:25:17.067Z,2.70
2022-07-29T13:27:41.676Z,2.42
2022-07-29T13:30:09.438Z,2.70
2022-07-29T13:32:35.427Z,2.70
2022-07-29T13:35:05.293Z,2.60
2022-07-29T13:37:31.670Z,2.55
2022-07-29T13:39:56.932Z,2.53
2022-07-29T13:42:21.009Z,2.90
2022-07-29T13:44:44.784Z,2.83
2022-07-29T13:47:09.832Z,2.47
2022-07-29T13:49:33.627Z,2.72
2022-07-29T13:51:57.472Z,2.70
2022-07-29T13:54:22.882Z,2.63
2022-07-29T13:56:47.033Z,2.53
2022-07-29T13:59:10.776Z,2.78
2022-07-29T14:01:37.010Z,2.70
2022-07-29T14:04:00.814Z,2.85
2022-07-29T14:06:24.741Z,3.00
2022-07-29T14:08:49.246Z,2.80
2022-07-29T14:11:14.787Z,2.67
2022-07-29T14:13:38.666Z,2.60
2022-07-29T14:16:02.422Z,2.83
2022-07-29T14:18:26.197Z,2.50
2022-07-29T14:20:50.536Z,2.72
2022-07-29T14:23:16.210Z,2.72
2022-07-29T14:25:40.205Z,2.60
2022-07-29T14:28:08.096Z,3.00
2022-07-29T14:30:31.878Z,2.75
2022-07-29T14:32:55.656Z,3.03
2022-07-29T14:35:19.361Z,3.03
2022-07-29T14:37:43.124Z,2.92
2022-07-29T14:40:08.523Z,2.90
2022-07-29T14:42:32.695Z,2.53
2022-07-29T14:44:57.802Z,2.47
2022-07-29T14:47:22.860Z,2.70
2022-07-29T14:49:46.649Z,2.72
2022-07-29T14:52:10.401Z,2.95
2022-07-29T14:54:34.140Z,2.88
2022-07-29T14:56:58.572Z,2.80
2022-07-29T14:59:22.652Z,2.83
2022-07-29T15:01:47.781Z,2.97
2022-07-29T15:04:11.535Z,2.92
2022-07-29T15:06:35.273Z,2.83
2022-07-29T15:08:58.991Z,3.10
2022-07-29T15:11:22.781Z,2.97
2022-07-29T15:13:46.452Z,2.72
2022-07-29T15:16:10.252Z,2.78
2022-07-29T15:18:36.156Z,3.10
2022-07-29T15:21:01.505Z,3.05
2022-07-29T15:23:25.235Z,3.33
2022-07-29T15:25:49.085Z,2.92
2022-07-29T15:28:12.914Z,2.95
2022-07-29T15:30:41.817Z,2.72
2022-07-29T15:33:05.997Z,2.65
2022-07-29T15:35:31.388Z,3.00
2022-07-29T15:37:55.084Z,2.80
2022-07-29T15:40:18.972Z,3.25
2022-07-29T15:42:42.707Z,3.33
2022-07-29T15:45:07.803Z,3.10
2022-07-29T15:47:31.713Z,2.85
2022-07-29T15:49:55.465Z,2.88
2022-07-29T15:52:25.788Z,2.97
2022-07-29T15:54:50.111Z,2.67
2022-07-29T15:57:13.876Z,2.70
2022-07-29T15:59:37.654Z,2.63
2022-07-29T16:02:02.247Z,2.75
2022-07-29T16:04:26.199Z,3.03
2022-07-29T16:06:50.935Z,2.90
2022-07-29T16:09:16.883Z,2.60
2022-07-29T16:11:40.879Z,2.58
2022-07-29T16:14:05.115Z,2.60
2022-07-29T16:16:28.856Z,2.90
2022-07-29T16:18:52.959Z,3.03
2022-07-29T16:21:16.840Z,2.60
2022-07-29T16:23:40.804Z,2.60
2022-07-29T16:26:05.971Z,2.50
2022-07-29T16:28:30.379Z,2.67
2022-07-29T16:30:54.067Z,2.70
2022-07-29T16:33:17.825Z,2.42
2022-07-29T16:35:41.521Z,2.97
2022-07-29T16:38:05.325Z,2.75
2022-07-29T16:40:28.995Z,2.60
2022-07-29T16:42:54.209Z,2.50
2022-07-29T16:45:21.305Z,2.63
2022-07-29T16:47:45.307Z,3.08
2022-07-29T16:50:10.716Z,2.58
2022-07-29T16:52:34.527Z,2.80
2022-07-29T16:54:58.248Z,2.95
2022-07-29T16:57:22.048Z,2.90
2022-07-29T16:59:47.311Z,2.60
2022-07-29T17:02:12.091Z,3.47
2022-07-29T17:04:36.384Z,3.30
2022-07-29T17:07:01.084Z,3.28
2022-07-29T17:09:25.598Z,3.90
2022-07-29T17:11:55.093Z,3.33
2022-07-29T17:14:19.180Z,2.85
2022-07-29T17:16:51.563Z,3.40
2022-07-29T17:19:24.785Z,3.13
2022-07-29T17:21:49.320Z,3.13
2022-07-29T17:24:13.108Z,3.33
2022-07-29T17:26:36.891Z,2.88
2022-07-29T17:29:00.773Z,2.50
2022-07-29T17:31:24.939Z,2.80
2022-07-29T17:33:50.165Z,2.53
2022-07-29T17:36:26.890Z,2.50
2022-07-29T17:38:51.156Z,2.47
2022-07-29T17:41:15.524Z,2.70
2022-07-29T17:43:39.313Z,2.63
2022-07-29T17:46:03.486Z,2.53
2022-07-29T17:48:27.251Z,2.50
2022-07-29T17:50:52.614Z,2.20
2022-07-29T17:53:16.968Z,2.03
2022-07-29T17:55:40.725Z,2.28
2022-07-29T17:58:04.500Z,2.65
2022-07-29T18:00:28.489Z,2.22
2022-07-29T18:02:52.643Z,2.15
2022-07-29T18:05:16.451Z,2.25
2022-07-29T18:07:41.664Z,2.35
2022-07-29T18:10:06.387Z,2.30
2022-07-29T18:12:30.173Z,2.22
2022-07-29T18:14:54.108Z,2.00
2022-07-29T18:17:18.480Z,2.30
2022-07-29T18:19:42.205Z,2.42
2022-07-29T18:22:07.476Z,2.40
2022-07-29T18:24:32.612Z,2.30
2022-07-29T18:26:56.916Z,2.20
2022-07-29T18:29:20.916Z,2.28
2022-07-29T18:31:44.799Z,2.13
2022-07-29T18:34:08.531Z,2.13
2022-07-29T18:36:32.307Z,2.40
2022-07-29T18:38:55.996Z,2.35
2022-07-29T18:41:21.196Z,2.53
2022-07-29T18:43:45.520Z,2.45
2022-07-29T18:46:09.363Z,2.60
2022-07-29T18:48:34.280Z,2.40
2022-07-29T18:50:58.067Z,2.28
2022-07-29T18:53:21.858Z,2.40
2022-07-29T18:55:45.824Z,2.42
2022-07-29T18:58:11.052Z,2.42
2022-07-29T19:00:35.491Z,2.40
2022-07-29T19:02:59.322Z,2.55
2022-07-29T19:05:24.194Z,2.45
2022-07-29T19:07:47.939Z,2.58
2022-07-29T19:10:12.378Z,2.30
2022-07-29T19:12:36.116Z,2.25
2022-07-29T19:15:01.293Z,2.47
2022-07-29T19:17:25.008Z,2.30
2022-07-29T19:19:50.993Z,2.60
2022-07-29T19:22:14.812Z,2.30
2022-07-29T19:24:38.600Z,2.70
2022-07-29T19:27:02.440Z,2.22
2022-07-29T19:29:26.768Z,2.30
2022-07-29T19:31:51.994Z,2.45
2022-07-29T19:34:15.781Z,2.33
2022-07-29T19:36:39.606Z,2.50
2022-07-29T19:39:03.573Z,2.45
2022-07-29T19:41:27.333Z,2.38
2022-07-29T19:43:53.050Z,2.20
2022-07-29T19:46:17.042Z,2.35
2022-07-29T19:48:42.304Z,2.20
2022-07-29T19:51:06.119Z,2.28
2022-07-29T19:53:29.860Z,2.20
2022-07-29T19:55:53.761Z,2.40
2022-07-29T19:58:17.510Z,2.17
2022-07-29T20:00:42.400Z,2.53
2022-07-29T20:03:07.488Z,2.55
2022-07-29T20:05:33.209Z,2.55
2022-07-29T20:07:57.271Z,2.70
2022-07-29T20:10:21.056Z,2.60
2022-07-29T20:12:44.964Z,2.58
2022-07-29T20:15:16.262Z,2.70
2022-07-29T20:17:40.674Z,2.50
2022-07-29T20:20:05.453Z,3.00
2022-07-29T20:22:30.561Z,2.67
2022-07-29T20:24:54.280Z,2.80
2022-07-29T20:27:18.918Z,2.42
2022-07-29T20:29:42.630Z,2.40
2022-07-29T20:32:07.189Z,2.88
2022-07-29T20:34:30.950Z,2.70
2022-07-29T20:36:54.672Z,3.17
2022-07-29T20:39:21.060Z,2.80
2022-07-29T20:41:44.903Z,2.67
2022-07-29T20:44:08.616Z,2.70
2022-07-29T20:46:32.689Z,2.60
2022-07-29T20:48:56.543Z,2.92
2022-07-29T20:51:20.431Z,3.05
2022-07-29T20:53:44.204Z,2.97
2022-07-29T20:56:09.876Z,3.15
2022-07-29T20:58:34.131Z,2.70
2022-07-29T21:00:57.865Z,2.70
2022-07-29T21:03:21.643Z,3.05
2022-07-29T21:05:45.496Z,2.47
2022-07-29T21:08:09.240Z,2.67
2022-07-29T21:10:33.028Z,2.55
2022-07-29T21:12:58.256Z,2.83
2022-07-29T21:15:22.049Z,2.88
2022-07-29T21:17:48.068Z,2.75
2022-07-29T21:20:13.487Z,2.63
2022-07-29T21:22:37.201Z,2.80
2022-07-29T21:25:01.000Z,2.70
2022-07-29T21:27:42.200Z,2.70
2022-07-29T21:30:09.564Z,2.70
2022-07-29T21:32:33.315Z,2.58
2022-07-29T21:34:57.213Z,2.50
2022-07-29T21:37:20.932Z,2.78
2022-07-29T21:39:44.657Z,2.80
2022-07-29T21:42:08.827Z,2.53
2022-07-29T21:44:32.579Z,2.72
2022-07-29T21:46:57.957Z,2.97
2022-07-29T21:49:21.908Z,2.70
2022-07-29T21:51:45.652Z,2.60
2022-07-29T21:54:09.604Z,2.53
2022-07-29T21:56:33.951Z,2.78
2022-07-29T21:58:59.484Z,2.60
2022-07-29T22:01:23.889Z,2.70
2022-07-29T22:03:49.123Z,2.42
2022-07-29T22:06:17.297Z,2.47
2022-07-29T22:08:45.537Z,2.78
2022-07-29T22:11:09.312Z,2.45
2022-07-29T22:13:33.168Z,2.67
2022-07-29T22:16:00.612Z,3.08
2022-07-29T22:18:24.364Z,2.67
2022-07-29T22:20:50.090Z,2.60
2022-07-29T22:23:13.861Z,3.33
2022-07-29T22:25:37.569Z,2.92
2022-07-29T22:28:01.404Z,2.85
2022-07-29T22:30:25.151Z,2.90
2022-07-29T22:32:49.690Z,3.22
2022-07-29T22:35:13.547Z,2.80
2022-07-29T22:37:39.192Z,2.85
2022-07-29T22:40:03.037Z,2.33
2022-07-29T22:42:26.795Z,2.63
2022-07-29T22:44:50.467Z,2.80
2022-07-29T22:47:14.216Z,2.97
2022-07-29T22:49:37.899Z,2.55
2022-07-29T22:52:01.701Z,2.67
2022-07-29T22:54:27.076Z,3.00
2022-07-29T22:56:50.929Z,2.65
2022-07-29T22:59:14.705Z,3.17
2022-07-29T23:01:38.586Z,2.70
2022-07-29T23:04:02.562Z,2.92
2022-07-29T23:06:26.397Z,2.70
2022-07-29T23:08:50.136Z,2.92
2022-07-29T23:11:15.417Z,2.60
2022-07-29T23:13:39.121Z,2.63
2022-07-29T23:16:03.255Z,2.60
2022-07-29T23:18:27.069Z,2.60
2022-07-29T23:20:50.807Z,2.75
2022-07-29T23:23:14.564Z,2.60
2022-07-29T23:25:38.460Z,2.50
2022-07-29T23:28:03.908Z,2.65
2022-07-29T23:30:29.493Z,2.90
2022-07-29T23:32:53.297Z,2.70
2022-07-29T23:35:17.089Z,2.65
2022-07-29T23:37:40.889Z,2.80
2022-07-29T23:40:05.119Z,2.83
2022-07-29T23:42:28.936Z,2.63
2022-07-29T23:44:54.205Z,2.95
2022-07-29T23:47:18.077Z,2.90
2022-07-29T23:49:41.852Z,2.60
2022-07-29T23:52:06.272Z,2.65
2022-07-29T23:54:30.142Z,2.97
2022-07-29T23:56:53.822Z,2.60
2022-07-29T23:59:17.515Z,2.85
